createdAt,value
2023-05-03T00:01:31.686Z,42.51
2023-05-03T00:03:58.879Z,42.55
2023-05-03T00:06:26.824Z,42.45
2023-05-03T00:08:54.071Z,42.43
2023-05-03T00:11:21.346Z,42.44
2023-05-03T00:13:48.619Z,42.45
2023-05-03T00:16:15.941Z,42.48
2023-05-03T00:18:43.183Z,42.46
2023-05-03T00:21:10.373Z,42.46
2023-05-03T00:23:37.570Z,42.51
2023-05-03T00:26:04.776Z,42.38
2023-05-03T00:28:32.029Z,42.58
2023-05-03T00:31:10.133Z,42.48
2023-05-03T00:33:38.157Z,42.44
2023-05-03T00:36:12.889Z,42.50
2023-05-03T00:38:40.853Z,42.57
2023-05-03T00:41:09.451Z,42.61
2023-05-03T00:43:37.932Z,42.55
2023-05-03T00:46:15.827Z,42.72
2023-05-03T00:48:48.139Z,42.54
2023-05-03T00:51:16.086Z,42.49
2023-05-03T00:53:43.777Z,42.51
2023-05-03T00:56:14.038Z,42.73
2023-05-03T00:58:41.270Z,42.69
2023-05-03T01:01:08.910Z,42.66
2023-05-03T01:03:41.289Z,42.63
2023-05-03T01:06:31.820Z,42.62
2023-05-03T01:09:27.931Z,42.54
2023-05-03T01:12:12.549Z,42.63
2023-05-03T01:14:51.298Z,42.61
2023-05-03T01:17:19.293Z,42.56
2023-05-03T01:19:49.164Z,42.73
2023-05-03T01:22:53.021Z,42.67
2023-05-03T01:25:20.228Z,42.61
2023-05-03T01:27:47.541Z,42.76
2023-05-03T01:30:14.922Z,42.75
2023-05-03T01:33:35.399Z,42.85
2023-05-03T01:36:19.468Z,42.72
2023-05-03T01:38:47.025Z,42.58
2023-05-03T01:41:14.704Z,42.73
2023-05-03T01:43:42.758Z,42.56
2023-05-03T01:46:10.841Z,42.60
2023-05-03T01:48:38.207Z,42.42
2023-05-03T01:51:05.903Z,42.79
2023-05-03T01:53:33.214Z,42.73
2023-05-03T01:56:00.534Z,42.73
2023-05-03T01:58:27.713Z,42.71
2023-05-03T02:00:54.932Z,42.88
2023-05-03T02:03:22.606Z,42.73
2023-05-03T02:05:49.800Z,42.74
2023-05-03T02:08:16.963Z,42.99
2023-05-03T02:10:47.301Z,42.82
2023-05-03T02:13:15.016Z,42.94
2023-05-03T02:15:42.237Z,42.80
2023-05-03T02:18:09.632Z,42.67
2023-05-03T02:20:38.088Z,42.78
2023-05-03T02:23:05.828Z,42.76
2023-05-03T02:25:33.028Z,42.87
2023-05-03T02:28:00.404Z,42.78
2023-05-03T02:30:27.810Z,42.82
2023-05-03T02:32:55.405Z,42.88
2023-05-03T02:35:22.635Z,42.82
2023-05-03T02:37:50.126Z,42.74
2023-05-03T02:40:17.680Z,42.91
2023-05-03T02:42:44.867Z,42.64
2023-05-03T02:45:12.202Z,42.77
2023-05-03T02:47:39.368Z,42.79
2023-05-03T02:50:07.757Z,42.82
2023-05-03T02:52:34.933Z,42.86
2023-05-03T02:55:02.130Z,42.76
2023-05-03T02:57:29.300Z,42.71
2023-05-03T02:59:56.501Z,42.71
2023-05-03T03:02:23.835Z,42.72
2023-05-03T03:04:51.203Z,42.84
2023-05-03T03:07:18.378Z,42.87
2023-05-03T03:09:45.724Z,42.78
2023-05-03T03:12:12.923Z,42.83
2023-05-03T03:14:41.576Z,43.01
2023-05-03T03:17:09.314Z,42.78
2023-05-03T03:19:36.469Z,42.87
2023-05-03T03:22:03.638Z,42.85
2023-05-03T03:24:31.501Z,42.79
2023-05-03T03:26:58.785Z,42.84
2023-05-03T03:29:25.996Z,42.77
2023-05-03T03:31:53.237Z,42.99
2023-05-03T03:34:20.481Z,42.92
2023-05-03T03:36:47.676Z,42.98
2023-05-03T03:39:14.914Z,42.81
2023-05-03T03:41:42.316Z,42.79
2023-05-03T03:44:09.476Z,42.84
2023-05-03T03:46:36.768Z,42.90
2023-05-03T03:49:03.920Z,42.96
2023-05-03T03:51:31.243Z,42.91
2023-05-03T03:53:58.671Z,43.11
2023-05-03T03:56:26.259Z,42.76
2023-05-03T03:58:53.456Z,43.10
2023-05-03T04:01:20.637Z,42.90
2023-05-03T04:03:48.128Z,42.89
2023-05-03T04:06:15.439Z,43.01
2023-05-03T04:08:42.663Z,42.92
2023-05-03T04:11:13.117Z,43.00
2023-05-03T04:13:40.417Z,42.88
2023-05-03T04:16:08.033Z,42.86
2023-05-03T04:18:35.378Z,42.92
2023-05-03T04:21:02.591Z,42.91
2023-05-03T04:23:29.819Z,42.81
2023-05-03T04:25:57.958Z,43.04
2023-05-03T04:28:26.982Z,42.77
2023-05-03T04:30:54.174Z,42.81
2023-05-03T04:33:22.059Z,43.01
2023-05-03T04:35:52.782Z,42.88
2023-05-03T04:38:20.476Z,42.98
2023-05-03T04:40:47.782Z,42.73
2023-05-03T04:43:15.035Z,42.96
2023-05-03T04:45:42.216Z,42.91
2023-05-03T04:48:09.973Z,42.79
2023-05-03T04:50:37.233Z,42.93
2023-05-03T04:53:04.436Z,42.80
2023-05-03T04:55:31.737Z,43.06
2023-05-03T04:57:59.024Z,43.23
2023-05-03T05:00:26.512Z,43.08
2023-05-03T05:02:53.745Z,43.07
2023-05-03T05:05:21.027Z,42.99
2023-05-03T05:07:48.219Z,43.28
2023-05-03T05:10:15.563Z,43.58
2023-05-03T05:12:43.005Z,43.50
2023-05-03T05:15:10.734Z,43.67
2023-05-03T05:17:38.056Z,43.34
2023-05-03T05:20:07.329Z,43.00
2023-05-03T05:22:34.556Z,42.41
2023-05-03T05:25:02.077Z,42.51
2023-05-03T05:27:29.404Z,41.88
2023-05-03T05:29:56.712Z,41.88
2023-05-03T05:32:24.008Z,41.87
2023-05-03T05:34:55.504Z,41.93
2023-05-03T05:37:23.424Z,41.85
2023-05-03T05:39:50.649Z,42.11
2023-05-03T05:42:17.870Z,41.77
2023-05-03T05:44:45.097Z,41.70
2023-05-03T05:47:12.338Z,41.46
2023-05-03T05:49:40.143Z,41.46
2023-05-03T05:52:07.731Z,41.46
2023-05-03T05:54:35.005Z,41.31
2023-05-03T05:57:02.577Z,41.39
2023-05-03T05:59:31.466Z,41.32
2023-05-03T06:02:00.240Z,41.17
2023-05-03T06:04:27.517Z,41.17
2023-05-03T06:06:54.734Z,41.07
2023-05-03T06:09:24.723Z,40.56
2023-05-03T06:11:52.317Z,40.49
2023-05-03T06:14:20.661Z,40.47
2023-05-03T06:16:48.083Z,39.83
2023-05-03T06:19:16.946Z,40.29
2023-05-03T06:21:44.479Z,39.59
2023-05-03T06:24:11.680Z,40.10
2023-05-03T06:26:38.903Z,40.05
2023-05-03T06:29:06.190Z,40.05
2023-05-03T06:31:33.379Z,40.43
2023-05-03T06:34:00.859Z,40.55
2023-05-03T06:36:29.830Z,40.48
2023-05-03T06:38:57.013Z,40.53
2023-05-03T06:41:24.343Z,40.27
2023-05-03T06:43:51.517Z,40.03
2023-05-03T06:46:20.466Z,39.85
2023-05-03T06:48:47.997Z,40.02
2023-05-03T06:51:15.809Z,39.79
2023-05-03T06:53:43.023Z,39.51
2023-05-03T06:56:10.205Z,40.11
2023-05-03T06:58:37.481Z,40.06
2023-05-03T07:01:04.751Z,40.69
2023-05-03T07:03:32.028Z,41.65
2023-05-03T07:05:59.454Z,41.54
2023-05-03T07:08:26.569Z,42.01
2023-05-03T07:10:53.677Z,42.01
2023-05-03T07:13:20.969Z,42.73
2023-05-03T07:15:48.180Z,42.43
2023-05-03T07:18:15.501Z,42.33
2023-05-03T07:20:42.682Z,42.41
2023-05-03T07:23:10.004Z,42.02
2023-05-03T07:25:39.331Z,42.26
2023-05-03T07:28:06.984Z,42.25
2023-05-03T07:30:34.230Z,42.29
2023-05-03T07:33:01.536Z,42.06
2023-05-03T07:35:28.894Z,41.88
2023-05-03T07:37:56.805Z,41.73
2023-05-03T07:40:23.992Z,41.84
2023-05-03T07:42:51.170Z,41.80
2023-05-03T07:45:19.544Z,41.76
2023-05-03T07:47:46.841Z,41.63
2023-05-03T07:50:14.055Z,41.63
2023-05-03T07:52:43.348Z,41.48
2023-05-03T07:55:10.796Z,41.33
2023-05-03T07:57:38.058Z,41.33
2023-05-03T08:00:06.304Z,41.40
2023-05-03T08:02:33.717Z,41.21
2023-05-03T08:05:01.337Z,41.21
2023-05-03T08:07:29.536Z,41.15
2023-05-03T08:09:58.550Z,41.10
2023-05-03T08:12:26.125Z,40.99
2023-05-03T08:14:56.422Z,41.44
2023-05-03T08:17:24.056Z,41.16
2023-05-03T08:19:52.175Z,41.12
2023-05-03T08:22:19.366Z,41.27
2023-05-03T08:24:46.578Z,41.11
2023-05-03T08:27:13.799Z,41.31
2023-05-03T08:29:40.999Z,41.16
2023-05-03T08:32:08.346Z,41.24
2023-05-03T08:34:36.360Z,41.35
2023-05-03T08:37:05.268Z,41.24
2023-05-03T08:39:33.218Z,41.28
2023-05-03T08:42:00.514Z,41.36
2023-05-03T08:44:29.812Z,41.36
2023-05-03T08:46:57.075Z,41.34
2023-05-03T08:49:24.967Z,41.30
2023-05-03T08:51:52.599Z,41.43
2023-05-03T08:54:21.179Z,41.45
2023-05-03T08:56:48.788Z,41.42
2023-05-03T08:59:17.332Z,41.36
2023-05-03T09:01:44.886Z,41.45
2023-05-03T09:04:12.949Z,41.30
2023-05-03T09:06:40.499Z,41.34
2023-05-03T09:09:08.423Z,41.18
2023-05-03T09:11:38.270Z,41.31
2023-05-03T09:14:10.153Z,41.33
2023-05-03T09:16:38.123Z,41.17
2023-05-03T09:19:08.216Z,41.34
2023-05-03T09:21:36.083Z,41.18
2023-05-03T09:24:10.836Z,41.27
2023-05-03T09:26:39.696Z,41.25
2023-05-03T09:29:06.931Z,41.23
2023-05-03T09:31:35.528Z,41.21
2023-05-03T09:34:04.997Z,41.00
2023-05-03T09:36:47.143Z,41.17
2023-05-03T09:39:18.325Z,41.11
2023-05-03T09:41:45.574Z,41.01
2023-05-03T09:44:13.181Z,41.04
2023-05-03T09:46:40.418Z,41.05
2023-05-03T09:49:07.778Z,41.11
2023-05-03T09:51:34.992Z,40.85
2023-05-03T09:54:03.586Z,40.94
2023-05-03T09:56:31.089Z,41.01
2023-05-03T09:58:58.892Z,40.97
2023-05-03T10:01:26.276Z,40.97
2023-05-03T10:03:57.555Z,41.09
2023-05-03T10:06:39.748Z,41.23
2023-05-03T10:09:40.210Z,41.22
2023-05-03T10:12:13.073Z,41.30
2023-05-03T10:14:53.779Z,41.20
2023-05-03T10:17:46.356Z,41.38
2023-05-03T10:20:35.176Z,41.52
2023-05-03T10:23:05.603Z,41.52
2023-05-03T10:25:34.483Z,41.40
2023-05-03T10:28:06.025Z,41.60
2023-05-03T10:30:40.599Z,41.54
2023-05-03T10:33:14.062Z,41.73
2023-05-03T10:35:42.650Z,41.43
2023-05-03T10:38:28.337Z,41.45
2023-05-03T10:40:56.656Z,41.57
2023-05-03T10:43:35.768Z,41.58
2023-05-03T10:46:07.139Z,40.68
2023-05-03T10:48:34.998Z,41.02
2023-05-03T10:51:37.323Z,39.87
2023-05-03T10:54:23.312Z,40.27
2023-05-03T10:56:55.425Z,40.27
2023-05-03T10:59:23.349Z,40.21
2023-05-03T11:01:52.454Z,39.61
2023-05-03T11:04:23.608Z,39.98
2023-05-03T11:06:56.556Z,39.84
2023-05-03T11:09:34.618Z,39.66
2023-05-03T11:12:05.598Z,39.75
2023-05-03T11:14:32.831Z,39.72
2023-05-03T11:17:01.183Z,39.46
2023-05-03T11:19:29.476Z,39.53
2023-05-03T11:21:57.195Z,39.26
2023-05-03T11:24:24.381Z,39.28
2023-05-03T11:26:51.621Z,39.05
2023-05-03T11:29:19.469Z,39.33
2023-05-03T11:31:46.848Z,39.33
2023-05-03T11:34:15.748Z,39.40
2023-05-03T11:36:43.322Z,39.53
2023-05-03T11:39:13.097Z,39.62
2023-05-03T11:41:42.026Z,39.70
2023-05-03T11:44:17.875Z,39.88
2023-05-03T11:46:46.544Z,39.87
2023-05-03T11:49:18.676Z,39.84
2023-05-03T11:51:48.672Z,40.04
2023-05-03T11:54:25.014Z,39.95
2023-05-03T11:56:57.826Z,39.88
2023-05-03T11:59:41.197Z,40.01
2023-05-03T12:02:10.498Z,40.11
2023-05-03T12:04:41.690Z,39.99
2023-05-03T12:07:11.015Z,39.99
2023-05-03T12:09:40.202Z,39.87
2023-05-03T12:12:10.820Z,39.91
2023-05-03T12:14:59.064Z,39.90
2023-05-03T12:17:38.907Z,39.80
2023-05-03T12:22:56.508Z,39.60
2023-05-03T12:25:27.576Z,39.67
2023-05-03T12:28:17.938Z,39.49
2023-05-03T12:30:46.436Z,39.36
2023-05-03T12:33:16.497Z,39.54
2023-05-03T12:35:47.933Z,39.46
2023-05-03T12:38:17.382Z,39.38
2023-05-03T12:40:46.775Z,39.49
2023-05-03T12:43:14.165Z,39.29
2023-05-03T12:45:46.379Z,39.26
2023-05-03T12:48:14.548Z,39.31
2023-05-03T12:50:45.279Z,39.22
2023-05-03T12:53:16.664Z,39.19
2023-05-03T12:55:45.273Z,39.19
2023-05-03T13:01:15.890Z,39.39
2023-05-03T13:03:42.993Z,39.14
2023-05-03T13:06:13.838Z,39.03
2023-05-03T13:08:49.685Z,39.09
2023-05-03T13:11:19.782Z,39.04
2023-05-03T13:13:47.401Z,39.01
2023-05-03T13:16:14.870Z,39.14
2023-05-03T13:18:42.914Z,39.09
2023-05-03T13:21:12.105Z,39.19
2023-05-03T13:23:39.242Z,39.38
2023-05-03T13:26:07.000Z,39.46
2023-05-03T13:28:34.282Z,39.32
2023-05-03T13:31:01.574Z,39.71
2023-05-03T13:33:29.327Z,39.77
2023-05-03T13:35:56.738Z,39.67
2023-05-03T13:38:23.958Z,39.82
2023-05-03T13:40:52.155Z,39.86
2023-05-03T13:43:19.311Z,39.97
2023-05-03T13:45:46.546Z,39.92
2023-05-03T13:48:17.659Z,40.01
2023-05-03T13:50:46.078Z,40.17
2023-05-03T13:53:13.473Z,40.18
2023-05-03T13:55:40.705Z,40.25
2023-05-03T13:58:08.592Z,40.76
2023-05-03T14:00:36.539Z,40.83
2023-05-03T14:03:06.668Z,40.46
2023-05-03T14:05:33.960Z,40.45
2023-05-03T14:08:01.156Z,40.39
2023-05-03T14:10:28.370Z,40.45
2023-05-03T14:12:58.009Z,40.51
2023-05-03T14:15:25.261Z,39.91
2023-05-03T14:17:53.632Z,40.22
2023-05-03T14:20:21.962Z,36.00
2023-05-03T14:22:49.188Z,34.09
2023-05-03T14:25:16.783Z,34.23
2023-05-03T14:27:43.987Z,34.28
2023-05-03T14:30:11.661Z,34.25
2023-05-03T14:32:39.237Z,34.42
2023-05-03T14:35:06.770Z,34.19
2023-05-03T14:37:34.218Z,33.85
2023-05-03T14:40:02.226Z,33.95
2023-05-03T14:42:32.858Z,33.97
2023-05-03T14:45:00.665Z,34.19
2023-05-03T14:47:27.883Z,34.09
2023-05-03T14:49:56.073Z,33.90
2023-05-03T14:52:23.261Z,34.03
2023-05-03T14:54:50.677Z,33.85
2023-05-03T14:57:17.884Z,34.42
2023-05-03T14:59:45.716Z,34.26
2023-05-03T15:02:12.923Z,34.23
2023-05-03T15:04:40.212Z,34.95
2023-05-03T15:07:10.186Z,35.10
2023-05-03T15:09:38.980Z,35.39
2023-05-03T15:12:06.266Z,35.40
2023-05-03T15:14:33.446Z,35.72
2023-05-03T15:17:00.872Z,36.01
2023-05-03T15:19:28.309Z,36.16
2023-05-03T15:21:55.670Z,36.34
2023-05-03T15:24:22.960Z,36.37
2023-05-03T15:26:50.205Z,36.58
2023-05-03T15:29:17.386Z,37.07
2023-05-03T15:31:44.946Z,37.01
2023-05-03T15:34:12.555Z,37.26
2023-05-03T15:36:40.578Z,37.21
2023-05-03T15:39:07.844Z,37.23
2023-05-03T15:41:35.077Z,37.24
2023-05-03T15:44:05.212Z,37.33
2023-05-03T15:46:34.193Z,37.39
2023-05-03T15:49:01.825Z,37.58
2023-05-03T15:51:29.357Z,37.71
2023-05-03T15:53:56.625Z,37.65
2023-05-03T15:56:23.980Z,37.66
2023-05-03T15:58:51.323Z,37.80
2023-05-03T16:01:18.704Z,37.90
2023-05-03T16:03:46.205Z,37.77
2023-05-03T16:06:16.672Z,37.97
2023-05-03T16:08:44.117Z,37.90
2023-05-03T16:11:12.767Z,38.16
2023-05-03T16:13:39.944Z,38.13
2023-05-03T16:16:07.520Z,38.20
2023-05-03T16:18:34.932Z,37.97
2023-05-03T16:21:02.695Z,38.35
2023-05-03T16:23:30.035Z,38.16
2023-05-03T16:25:57.449Z,38.28
2023-05-03T16:28:24.700Z,38.35
2023-05-03T16:30:51.865Z,38.48
2023-05-03T16:33:20.299Z,38.51
2023-05-03T16:35:47.500Z,38.47
2023-05-03T16:38:14.680Z,38.41
2023-05-03T16:40:42.502Z,38.60
2023-05-03T16:43:10.657Z,38.59
2023-05-03T16:45:38.012Z,38.55
2023-05-03T16:48:07.999Z,38.68
2023-05-03T16:50:37.564Z,38.45
2023-05-03T16:53:04.784Z,38.53
2023-05-03T16:58:00.013Z,38.83
2023-05-03T17:00:27.378Z,38.95
2023-05-03T17:02:54.826Z,38.74
2023-05-03T17:05:22.733Z,39.08
2023-05-03T17:07:49.982Z,39.02
2023-05-03T17:10:17.309Z,38.92
2023-05-03T17:12:47.579Z,38.86
2023-05-03T17:15:14.883Z,39.09
2023-05-03T17:17:42.616Z,39.11
2023-05-03T17:20:10.888Z,38.95
2023-05-03T17:22:38.085Z,39.18
2023-05-03T17:25:06.172Z,38.91
2023-05-03T17:27:33.350Z,38.93
2023-05-03T17:30:00.501Z,39.20
2023-05-03T17:32:27.678Z,39.10
2023-05-03T17:34:54.837Z,39.26
2023-05-03T17:37:23.849Z,39.30
2023-05-03T17:39:51.060Z,39.31
2023-05-03T17:42:18.472Z,39.09
2023-05-03T17:44:45.671Z,39.23
2023-05-03T17:47:12.975Z,39.26
2023-05-03T17:49:40.329Z,39.28
2023-05-03T17:52:07.980Z,39.36
2023-05-03T17:54:35.671Z,39.24
2023-05-03T17:57:03.392Z,39.25
2023-05-03T17:59:30.625Z,39.32
2023-05-03T18:01:57.862Z,39.43
2023-05-03T18:04:26.878Z,39.57
2023-05-03T18:06:54.551Z,39.59
2023-05-03T18:09:22.508Z,39.58
2023-05-03T18:11:50.882Z,39.58
2023-05-03T18:14:18.037Z,39.50
2023-05-03T18:16:45.524Z,39.48
2023-05-03T18:19:13.253Z,39.59
2023-05-03T18:21:40.510Z,39.61
2023-05-03T18:24:07.886Z,39.64
2023-05-03T18:26:35.676Z,39.69
2023-05-03T18:29:03.022Z,39.63
2023-05-03T18:31:30.437Z,39.78
2023-05-03T18:33:57.624Z,39.76
2023-05-03T18:36:24.787Z,39.50
2023-05-03T18:38:54.563Z,39.73
2023-05-03T18:41:22.962Z,39.74
2023-05-03T18:43:51.929Z,39.66
2023-05-03T18:46:19.766Z,39.72
2023-05-03T18:48:47.789Z,39.74
2023-05-03T18:51:15.536Z,39.92
2023-05-03T18:53:43.446Z,39.54
2023-05-03T18:56:10.787Z,36.55
2023-05-03T18:58:39.186Z,35.05
2023-05-03T19:01:06.661Z,34.76
2023-05-03T19:03:34.125Z,34.60
2023-05-03T19:06:07.346Z,34.78
2023-05-03T19:08:35.412Z,34.68
2023-05-03T19:11:10.184Z,35.06
2023-05-03T19:13:38.207Z,35.09
2023-05-03T19:16:05.754Z,35.30
2023-05-03T19:18:33.579Z,35.20
2023-05-03T19:21:01.483Z,34.66
2023-05-03T19:23:29.235Z,34.78
2023-05-03T19:25:56.678Z,34.88
2023-05-03T19:28:24.068Z,35.50
2023-05-03T19:30:54.329Z,35.15
2023-05-03T19:33:22.622Z,35.04
2023-05-03T19:35:50.248Z,35.22
2023-05-03T19:38:17.697Z,35.16
2023-05-03T19:40:56.681Z,35.33
2023-05-03T19:43:24.367Z,35.45
2023-05-03T19:45:51.742Z,35.49
2023-05-03T19:48:19.178Z,35.58
2023-05-03T19:50:47.546Z,35.54
2023-05-03T19:53:14.734Z,35.42
2023-05-03T19:55:41.922Z,35.14
2023-05-03T19:58:09.391Z,35.49
2023-05-03T20:00:36.737Z,35.90
2023-05-03T20:03:04.186Z,35.77
2023-05-03T20:05:31.515Z,35.95
2023-05-03T20:07:58.674Z,36.80
2023-05-03T20:10:26.103Z,36.82
2023-05-03T20:12:53.666Z,37.36
2023-05-03T20:15:20.931Z,37.76
2023-05-03T20:17:48.555Z,37.60
2023-05-03T20:20:17.078Z,37.54
2023-05-03T20:22:44.457Z,38.10
2023-05-03T20:25:12.048Z,37.99
2023-05-03T20:27:39.390Z,38.12
2023-05-03T20:30:07.364Z,38.18
2023-05-03T20:32:38.871Z,38.26
2023-05-03T20:35:10.693Z,38.38
2023-05-03T20:37:38.606Z,38.32
2023-05-03T20:40:07.121Z,38.47
2023-05-03T20:42:34.346Z,38.34
2023-05-03T20:45:01.555Z,38.43
2023-05-03T20:47:28.855Z,38.54
2023-05-03T20:49:56.804Z,38.54
2023-05-03T20:52:24.154Z,38.60
2023-05-03T20:54:51.789Z,38.62
2023-05-03T20:57:19.037Z,38.74
2023-05-03T20:59:46.432Z,39.35
2023-05-03T21:02:13.800Z,39.60
2023-05-03T21:04:41.452Z,39.70
2023-05-03T21:07:08.642Z,39.87
2023-05-03T21:09:35.821Z,39.66
2023-05-03T21:12:03.609Z,40.05
2023-05-03T21:14:30.911Z,40.13
2023-05-03T21:16:58.224Z,39.90
2023-05-03T21:19:25.500Z,40.17
2023-05-03T21:21:53.394Z,40.45
2023-05-03T21:24:20.590Z,40.41
2023-05-03T21:26:47.865Z,40.14
2023-05-03T21:29:15.058Z,39.96
2023-05-03T21:31:42.291Z,39.78
2023-05-03T21:34:09.497Z,39.77
2023-05-03T21:36:36.732Z,39.60
2023-05-03T21:39:03.984Z,39.50
2023-05-03T21:41:31.344Z,39.59
2023-05-03T21:43:58.629Z,39.56
2023-05-03T21:46:25.942Z,39.39
2023-05-03T21:48:53.220Z,39.46
2023-05-03T21:51:21.828Z,39.19
2023-05-03T21:53:49.315Z,39.13
2023-05-03T21:56:16.586Z,39.11
2023-05-03T21:58:46.892Z,39.26
2023-05-03T22:01:17.606Z,39.26
2023-05-03T22:03:44.968Z,39.20
2023-05-03T22:06:12.326Z,39.01
2023-05-03T22:08:39.517Z,39.03
2023-05-03T22:11:07.067Z,39.21
2023-05-03T22:13:38.034Z,39.05
2023-05-03T22:16:11.474Z,39.07
2023-05-03T22:18:38.900Z,39.15
2023-05-03T22:21:07.266Z,39.14
2023-05-03T22:23:34.595Z,39.27
2023-05-03T22:26:01.832Z,39.20
2023-05-03T22:28:28.999Z,39.23
2023-05-03T22:30:56.548Z,38.95
2023-05-03T22:33:23.759Z,39.24
2023-05-03T22:35:50.931Z,39.05
2023-05-03T22:38:18.197Z,39.16
2023-05-03T22:40:45.476Z,39.15
2023-05-03T22:43:12.659Z,39.16
2023-05-03T22:45:40.066Z,39.33
2023-05-03T22:48:07.458Z,39.18
2023-05-03T22:50:34.684Z,39.26
2023-05-03T22:53:01.906Z,39.17
2023-05-03T22:55:29.210Z,39.20
2023-05-03T22:57:56.615Z,39.24
2023-05-03T23:00:23.874Z,39.27
2023-05-03T23:02:53.740Z,39.15
2023-05-03T23:05:21.372Z,39.23
2023-05-03T23:07:48.701Z,39.44
2023-05-03T23:10:15.902Z,39.34
2023-05-03T23:12:43.143Z,39.50
2023-05-03T23:15:11.297Z,39.59
2023-05-03T23:17:38.537Z,39.63
2023-05-03T23:20:06.638Z,39.67
2023-05-03T23:22:34.221Z,39.66
2023-05-03T23:25:01.482Z,39.68
2023-05-03T23:27:28.661Z,39.51
2023-05-03T23:29:56.160Z,39.56
2023-05-03T23:32:23.834Z,39.73
2023-05-03T23:34:51.543Z,39.74
2023-05-03T23:37:18.735Z,39.75
2023-05-03T23:39:46.028Z,39.77
2023-05-03T23:42:13.516Z,39.60
2023-05-03T23:44:53.857Z,39.67
2023-05-03T23:47:22.097Z,39.72
2023-05-03T23:49:49.305Z,39.79
2023-05-03T23:52:20.497Z,39.82
2023-05-03T23:54:47.957Z,39.81
2023-05-03T23:57:15.128Z,39.70
2023-05-03T23:59:42.320Z,39.85
